sensor_id;sensor_type;location;lat;lon;timestamp;P1;durP1;ratioP1;P2;durP2;ratioP2
57085;SDS011;42964;42.910;23.792;2022-09-09T00:06:43;7.88;;;5.55;;
57085;SDS011;42964;42.910;23.792;2022-09-09T00:11:50;6.88;;;5.57;;
57085;SDS011;42964;42.910;23.792;2022-09-09T00:16:56;7.95;;;5.78;;
57085;SDS011;42964;42.910;23.792;2022-09-09T00:32:47;7.70;;;5.65;;
57085;SDS011;42964;42.910;23.792;2022-09-09T00:37:48;11.52;;;5.53;;
57085;SDS011;42964;42.910;23.792;2022-09-09T00:42:52;8.73;;;5.53;;
57085;SDS011;42964;42.910;23.792;2022-09-09T00:48:02;12.93;;;5.60;;
57085;SDS011;42964;42.910;23.792;2022-09-09T00:58:28;8.53;;;7.63;;
57085;SDS011;42964;42.910;23.792;2022-09-09T01:20:08;10.95;;;7.72;;
57085;SDS011;42964;42.910;23.792;2022-09-09T01:25:12;11.88;;;8.05;;
57085;SDS011;42964;42.910;23.792;2022-09-09T01:30:15;9.65;;;7.50;;
57085;SDS011;42964;42.910;23.792;2022-09-09T01:40:33;9.30;;;7.95;;
57085;SDS011;42964;42.910;23.792;2022-09-09T01:45:33;8.90;;;7.80;;
57085;SDS011;42964;42.910;23.792;2022-09-09T01:50:32;9.05;;;8.00;;
57085;SDS011;42964;42.910;23.792;2022-09-09T01:55:38;11.77;;;8.43;;
57085;SDS011;42964;42.910;23.792;2022-09-09T02:00:42;9.48;;;7.78;;
57085;SDS011;42964;42.910;23.792;2022-09-09T02:11:19;8.88;;;5.50;;
57085;SDS011;42964;42.910;23.792;2022-09-09T02:21:39;6.93;;;5.10;;
57085;SDS011;42964;42.910;23.792;2022-09-09T02:26:42;7.32;;;6.63;;
57085;SDS011;42964;42.910;23.792;2022-09-09T02:31:45;8.60;;;6.55;;
57085;SDS011;42964;42.910;23.792;2022-09-09T02:36:47;10.35;;;7.43;;
57085;SDS011;42964;42.910;23.792;2022-09-09T02:41:48;11.38;;;7.70;;
57085;SDS011;42964;42.910;23.792;2022-09-09T02:52:13;11.98;;;6.55;;
57085;SDS011;42964;42.910;23.792;2022-09-09T02:57:19;8.15;;;4.82;;
57085;SDS011;42964;42.910;23.792;2022-09-09T03:02:22;6.43;;;4.90;;
57085;SDS011;42964;42.910;23.792;2022-09-09T03:07:21;9.40;;;5.50;;
57085;SDS011;42964;42.910;23.792;2022-09-09T03:12:20;8.48;;;5.65;;
57085;SDS011;42964;42.910;23.792;2022-09-09T03:17:19;6.05;;;5.10;;
57085;SDS011;42964;42.910;23.792;2022-09-09T03:22:18;7.72;;;5.40;;
57085;SDS011;42964;42.910;23.792;2022-09-09T03:27:17;9.52;;;4.88;;
57085;SDS011;42964;42.910;23.792;2022-09-09T03:32:18;10.93;;;5.53;;
57085;SDS011;42964;42.910;23.792;2022-09-09T03:37:18;6.28;;;5.03;;
57085;SDS011;42964;42.910;23.792;2022-09-09T03:42:18;9.75;;;5.43;;
57085;SDS011;42964;42.910;23.792;2022-09-09T03:47:17;7.90;;;5.47;;
57085;SDS011;42964;42.910;23.792;2022-09-09T03:52:17;10.02;;;5.95;;
57085;SDS011;42964;42.910;23.792;2022-09-09T03:57:17;6.45;;;5.45;;
57085;SDS011;42964;42.910;23.792;2022-09-09T04:02:16;10.43;;;6.00;;
57085;SDS011;42964;42.910;23.792;2022-09-09T04:07:15;8.50;;;5.75;;
57085;SDS011;42964;42.910;23.792;2022-09-09T04:12:14;11.98;;;6.20;;
57085;SDS011;42964;42.910;23.792;2022-09-09T04:17:13;19.67;;;8.15;;
57085;SDS011;42964;42.910;23.792;2022-09-09T04:22:12;12.80;;;8.95;;
57085;SDS011;42964;42.910;23.792;2022-09-09T04:27:11;12.20;;;8.77;;
57085;SDS011;42964;42.910;23.792;2022-09-09T04:32:10;14.55;;;8.60;;
57085;SDS011;42964;42.910;23.792;2022-09-09T04:37:10;9.23;;;8.00;;
57085;SDS011;42964;42.910;23.792;2022-09-09T04:42:09;10.13;;;8.02;;
57085;SDS011;42964;42.910;23.792;2022-09-09T04:47:07;12.15;;;9.18;;
57085;SDS011;42964;42.910;23.792;2022-09-09T04:52:06;14.05;;;9.63;;
57085;SDS011;42964;42.910;23.792;2022-09-09T04:57:05;11.75;;;9.25;;
57085;SDS011;42964;42.910;23.792;2022-09-09T05:02:05;12.80;;;8.15;;
57085;SDS011;42964;42.910;23.792;2022-09-09T05:07:04;12.23;;;6.38;;
57085;SDS011;42964;42.910;23.792;2022-09-09T05:12:03;9.90;;;6.38;;
57085;SDS011;42964;42.910;23.792;2022-09-09T05:17:03;13.07;;;7.70;;
57085;SDS011;42964;42.910;23.792;2022-09-09T05:22:02;11.57;;;8.60;;
57085;SDS011;42964;42.910;23.792;2022-09-09T05:27:02;13.38;;;8.70;;
57085;SDS011;42964;42.910;23.792;2022-09-09T05:32:03;18.05;;;8.20;;
57085;SDS011;42964;42.910;23.792;2022-09-09T05:37:03;11.75;;;7.20;;
57085;SDS011;42964;42.910;23.792;2022-09-09T05:42:03;7.95;;;6.78;;
57085;SDS011;42964;42.910;23.792;2022-09-09T05:47:03;12.95;;;7.93;;
57085;SDS011;42964;42.910;23.792;2022-09-09T05:52:02;13.50;;;8.50;;
57085;SDS011;42964;42.910;23.792;2022-09-09T05:57:02;9.38;;;8.13;;
57085;SDS011;42964;42.910;23.792;2022-09-09T06:02:02;11.57;;;8.57;;
57085;SDS011;42964;42.910;23.792;2022-09-09T06:07:01;13.27;;;9.00;;
57085;SDS011;42964;42.910;23.792;2022-09-09T06:12:00;12.68;;;9.88;;
57085;SDS011;42964;42.910;23.792;2022-09-09T06:16:59;10.73;;;8.10;;
57085;SDS011;42964;42.910;23.792;2022-09-09T06:21:58;11.20;;;7.50;;
57085;SDS011;42964;42.910;23.792;2022-09-09T06:26:57;8.05;;;5.45;;
57085;SDS011;42964;42.910;23.792;2022-09-09T06:31:56;6.85;;;4.70;;
57085;SDS011;42964;42.910;23.792;2022-09-09T06:36:56;10.02;;;4.97;;
57085;SDS011;42964;42.910;23.792;2022-09-09T06:41:58;7.57;;;5.50;;
57085;SDS011;42964;42.910;23.792;2022-09-09T06:46:57;7.97;;;4.78;;
57085;SDS011;42964;42.910;23.792;2022-09-09T06:51:56;6.80;;;4.40;;
57085;SDS011;42964;42.910;23.792;2022-09-09T06:56:55;10.52;;;4.38;;
57085;SDS011;42964;42.910;23.792;2022-09-09T07:01:54;7.25;;;4.75;;
57085;SDS011;42964;42.910;23.792;2022-09-09T07:06:53;6.78;;;4.55;;
57085;SDS011;42964;42.910;23.792;2022-09-09T07:11:52;5.75;;;4.50;;
57085;SDS011;42964;42.910;23.792;2022-09-09T07:16:51;11.00;;;7.10;;
57085;SDS011;42964;42.910;23.792;2022-09-09T07:21:50;16.23;;;5.85;;
57085;SDS011;42964;42.910;23.792;2022-09-09T07:26:49;12.00;;;5.00;;
57085;SDS011;42964;42.910;23.792;2022-09-09T07:31:48;7.03;;;4.75;;
57085;SDS011;42964;42.910;23.792;2022-09-09T07:36:47;9.25;;;4.82;;
57085;SDS011;42964;42.910;23.792;2022-09-09T07:41:47;10.10;;;5.30;;
57085;SDS011;42964;42.910;23.792;2022-09-09T07:46:47;7.60;;;4.80;;
57085;SDS011;42964;42.910;23.792;2022-09-09T07:51:47;8.18;;;5.07;;
57085;SDS011;42964;42.910;23.792;2022-09-09T07:56:47;12.00;;;5.43;;
57085;SDS011;42964;42.910;23.792;2022-09-09T08:01:49;7.88;;;5.28;;
57085;SDS011;42964;42.910;23.792;2022-09-09T08:06:54;12.88;;;5.07;;
57085;SDS011;42964;42.910;23.792;2022-09-09T08:11:57;8.20;;;5.50;;
57085;SDS011;42964;42.910;23.792;2022-09-09T08:16:57;11.23;;;5.95;;
57085;SDS011;42964;42.910;23.792;2022-09-09T08:21:56;11.27;;;7.32;;
57085;SDS011;42964;42.910;23.792;2022-09-09T08:26:55;14.10;;;5.80;;
57085;SDS011;42964;42.910;23.792;2022-09-09T08:31:56;7.20;;;5.07;;
57085;SDS011;42964;42.910;23.792;2022-09-09T08:36:58;9.63;;;5.63;;
57085;SDS011;42964;42.910;23.792;2022-09-09T08:47:20;8.48;;;4.68;;
57085;SDS011;42964;42.910;23.792;2022-09-09T08:57:55;8.83;;;4.97;;
57085;SDS011;42964;42.910;23.792;2022-09-09T09:13:31;18.52;;;7.45;;
57085;SDS011;42964;42.910;23.792;2022-09-09T09:18:41;12.40;;;5.57;;
57085;SDS011;42964;42.910;23.792;2022-09-09T09:23:43;16.45;;;5.85;;
57085;SDS011;42964;42.910;23.792;2022-09-09T09:28:47;11.65;;;5.72;;
57085;SDS011;42964;42.910;23.792;2022-09-09T09:38:56;9.20;;;5.00;;
57085;SDS011;42964;42.910;23.792;2022-09-09T09:43:58;10.63;;;4.85;;
57085;SDS011;42964;42.910;23.792;2022-09-09T09:49:03;8.13;;;4.78;;
57085;SDS011;42964;42.910;23.792;2022-09-09T09:54:07;7.78;;;5.35;;
57085;SDS011;42964;42.910;23.792;2022-09-09T10:04:26;8.75;;;4.70;;
57085;SDS011;42964;42.910;23.792;2022-09-09T10:09:26;6.97;;;5.30;;
57085;SDS011;42964;42.910;23.792;2022-09-09T10:14:32;7.93;;;5.10;;
57085;SDS011;42964;42.910;23.792;2022-09-09T10:19:55;6.40;;;5.40;;
57085;SDS011;42964;42.910;23.792;2022-09-09T10:30:27;9.60;;;5.30;;
57085;SDS011;42964;42.910;23.792;2022-09-09T10:35:31;8.20;;;5.03;;
57085;SDS011;42964;42.910;23.792;2022-09-09T10:56:16;8.18;;;5.18;;
57085;SDS011;42964;42.910;23.792;2022-09-09T11:01:28;11.10;;;5.38;;
57085;SDS011;42964;42.910;23.792;2022-09-09T11:06:34;9.48;;;5.60;;
57085;SDS011;42964;42.910;23.792;2022-09-09T11:17:24;9.07;;;5.97;;
57085;SDS011;42964;42.910;23.792;2022-09-09T11:38:46;9.07;;;6.22;;
57085;SDS011;42964;42.910;23.792;2022-09-09T11:43:50;10.50;;;6.25;;
57085;SDS011;42964;42.910;23.792;2022-09-09T11:49:00;8.13;;;5.53;;
57085;SDS011;42964;42.910;23.792;2022-09-09T11:54:02;9.77;;;6.25;;
57085;SDS011;42964;42.910;23.792;2022-09-09T11:59:24;9.60;;;5.85;;
57085;SDS011;42964;42.910;23.792;2022-09-09T12:04:34;11.50;;;6.32;;
57085;SDS011;42964;42.910;23.792;2022-09-09T12:15:00;9.43;;;5.25;;
57085;SDS011;42964;42.910;23.792;2022-09-09T12:25:23;8.15;;;5.55;;
57085;SDS011;42964;42.910;23.792;2022-09-09T12:30:27;11.73;;;6.22;;
57085;SDS011;42964;42.910;23.792;2022-09-09T12:35:31;10.38;;;5.80;;
57085;SDS011;42964;42.910;23.792;2022-09-09T12:40:31;16.45;;;9.02;;
57085;SDS011;42964;42.910;23.792;2022-09-09T12:45:33;12.48;;;7.30;;
57085;SDS011;42964;42.910;23.792;2022-09-09T12:50:35;8.32;;;5.57;;
57085;SDS011;42964;42.910;23.792;2022-09-09T12:55:37;12.05;;;6.05;;
57085;SDS011;42964;42.910;23.792;2022-09-09T13:00:38;8.48;;;6.15;;
57085;SDS011;42964;42.910;23.792;2022-09-09T13:05:50;11.20;;;6.68;;
57085;SDS011;42964;42.910;23.792;2022-09-09T13:16:02;11.35;;;6.35;;
57085;SDS011;42964;42.910;23.792;2022-09-09T13:21:03;12.20;;;6.30;;
57085;SDS011;42964;42.910;23.792;2022-09-09T13:26:03;15.93;;;6.38;;
57085;SDS011;42964;42.910;23.792;2022-09-09T13:31:05;12.00;;;6.25;;
57085;SDS011;42964;42.910;23.792;2022-09-09T13:36:26;14.73;;;6.95;;
57085;SDS011;42964;42.910;23.792;2022-09-09T13:41:42;12.32;;;6.45;;
57085;SDS011;42964;42.910;23.792;2022-09-09T13:46:42;11.00;;;6.43;;
57085;SDS011;42964;42.910;23.792;2022-09-09T13:51:42;13.20;;;6.38;;
57085;SDS011;42964;42.910;23.792;2022-09-09T13:56:45;10.30;;;6.63;;
57085;SDS011;42964;42.910;23.792;2022-09-09T14:01:45;13.20;;;6.93;;
57085;SDS011;42964;42.910;23.792;2022-09-09T14:06:44;12.57;;;6.68;;
57085;SDS011;42964;42.910;23.792;2022-09-09T14:11:44;13.98;;;8.00;;
57085;SDS011;42964;42.910;23.792;2022-09-09T14:16:44;12.95;;;7.05;;
57085;SDS011;42964;42.910;23.792;2022-09-09T14:21:43;12.82;;;7.63;;
57085;SDS011;42964;42.910;23.792;2022-09-09T14:26:42;11.77;;;7.65;;
57085;SDS011;42964;42.910;23.792;2022-09-09T14:31:41;15.38;;;8.13;;
57085;SDS011;42964;42.910;23.792;2022-09-09T14:36:40;12.57;;;7.70;;
57085;SDS011;42964;42.910;23.792;2022-09-09T14:41:40;10.57;;;7.13;;
57085;SDS011;42964;42.910;23.792;2022-09-09T14:46:38;11.50;;;7.05;;
57085;SDS011;42964;42.910;23.792;2022-09-09T14:51:38;8.70;;;6.65;;
57085;SDS011;42964;42.910;23.792;2022-09-09T14:56:37;9.18;;;6.10;;
57085;SDS011;42964;42.910;23.792;2022-09-09T15:01:36;9.63;;;6.30;;
57085;SDS011;42964;42.910;23.792;2022-09-09T15:06:36;11.52;;;6.47;;
57085;SDS011;42964;42.910;23.792;2022-09-09T15:11:37;9.38;;;6.43;;
57085;SDS011;42964;42.910;23.792;2022-09-09T15:16:37;9.35;;;6.80;;
57085;SDS011;42964;42.910;23.792;2022-09-09T15:21:37;10.98;;;6.75;;
57085;SDS011;42964;42.910;23.792;2022-09-09T15:26:37;8.93;;;5.90;;
57085;SDS011;42964;42.910;23.792;2022-09-09T15:31:37;10.18;;;6.03;;
57085;SDS011;42964;42.910;23.792;2022-09-09T15:36:36;11.38;;;6.65;;
57085;SDS011;42964;42.910;23.792;2022-09-09T15:41:36;12.23;;;6.40;;
57085;SDS011;42964;42.910;23.792;2022-09-09T15:46:37;12.20;;;6.57;;
57085;SDS011;42964;42.910;23.792;2022-09-09T15:51:38;12.88;;;6.60;;
57085;SDS011;42964;42.910;23.792;2022-09-09T15:56:39;8.10;;;6.40;;
57085;SDS011;42964;42.910;23.792;2022-09-09T16:01:38;14.40;;;6.60;;
57085;SDS011;42964;42.910;23.792;2022-09-09T16:06:38;8.18;;;6.57;;
57085;SDS011;42964;42.910;23.792;2022-09-09T16:11:38;9.98;;;6.97;;
57085;SDS011;42964;42.910;23.792;2022-09-09T16:16:37;18.10;;;7.30;;
57085;SDS011;42964;42.910;23.792;2022-09-09T16:21:38;7.45;;;6.32;;
57085;SDS011;42964;42.910;23.792;2022-09-09T16:26:39;9.27;;;6.13;;
57085;SDS011;42964;42.910;23.792;2022-09-09T16:31:44;13.38;;;6.30;;
57085;SDS011;42964;42.910;23.792;2022-09-09T16:36:44;10.88;;;6.25;;
57085;SDS011;42964;42.910;23.792;2022-09-09T16:41:44;9.93;;;6.45;;
57085;SDS011;42964;42.910;23.792;2022-09-09T16:46:43;12.20;;;7.43;;
57085;SDS011;42964;42.910;23.792;2022-09-09T16:51:44;14.35;;;6.63;;
57085;SDS011;42964;42.910;23.792;2022-09-09T16:56:46;8.38;;;6.63;;
57085;SDS011;42964;42.910;23.792;2022-09-09T17:01:47;11.15;;;6.40;;
57085;SDS011;42964;42.910;23.792;2022-09-09T17:06:48;9.98;;;7.22;;
57085;SDS011;42964;42.910;23.792;2022-09-09T17:11:48;10.88;;;6.50;;
57085;SDS011;42964;42.910;23.792;2022-09-09T17:16:50;11.07;;;7.10;;
57085;SDS011;42964;42.910;23.792;2022-09-09T17:21:49;10.15;;;6.55;;
57085;SDS011;42964;42.910;23.792;2022-09-09T17:26:48;10.25;;;6.53;;
57085;SDS011;42964;42.910;23.792;2022-09-09T17:31:47;11.75;;;7.38;;
57085;SDS011;42964;42.910;23.792;2022-09-09T17:36:46;13.63;;;7.60;;
57085;SDS011;42964;42.910;23.792;2022-09-09T17:41:45;10.15;;;6.68;;
57085;SDS011;42964;42.910;23.792;2022-09-09T17:46:44;15.77;;;9.35;;
57085;SDS011;42964;42.910;23.792;2022-09-09T17:51:44;31.73;;;15.88;;
57085;SDS011;42964;42.910;23.792;2022-09-09T17:56:44;31.40;;;16.40;;
57085;SDS011;42964;42.910;23.792;2022-09-09T18:01:44;31.27;;;15.75;;
57085;SDS011;42964;42.910;23.792;2022-09-09T18:06:50;18.33;;;8.95;;
57085;SDS011;42964;42.910;23.792;2022-09-09T18:11:51;12.88;;;8.40;;
57085;SDS011;42964;42.910;23.792;2022-09-09T18:16:52;11.05;;;8.98;;
57085;SDS011;42964;42.910;23.792;2022-09-09T18:21:51;13.43;;;9.23;;
57085;SDS011;42964;42.910;23.792;2022-09-09T18:26:51;12.30;;;8.98;;
57085;SDS011;42964;42.910;23.792;2022-09-09T18:31:50;17.83;;;10.18;;
57085;SDS011;42964;42.910;23.792;2022-09-09T18:36:51;12.32;;;9.25;;
57085;SDS011;42964;42.910;23.792;2022-09-09T18:41:53;13.60;;;8.80;;
57085;SDS011;42964;42.910;23.792;2022-09-09T18:46:53;12.20;;;8.63;;
57085;SDS011;42964;42.910;23.792;2022-09-09T18:51:53;18.02;;;9.75;;
57085;SDS011;42964;42.910;23.792;2022-09-09T18:56:52;14.77;;;9.43;;
57085;SDS011;42964;42.910;23.792;2022-09-09T19:01:51;13.52;;;9.65;;
57085;SDS011;42964;42.910;23.792;2022-09-09T19:06:51;12.95;;;9.63;;
57085;SDS011;42964;42.910;23.792;2022-09-09T19:11:57;16.58;;;10.05;;
57085;SDS011;42964;42.910;23.792;2022-09-09T19:16:57;14.68;;;8.93;;
57085;SDS011;42964;42.910;23.792;2022-09-09T19:21:57;14.32;;;9.25;;
57085;SDS011;42964;42.910;23.792;2022-09-09T19:26:59;16.05;;;10.38;;
57085;SDS011;42964;42.910;23.792;2022-09-09T19:32:01;20.92;;;10.85;;
57085;SDS011;42964;42.910;23.792;2022-09-09T19:37:00;14.43;;;10.65;;
57085;SDS011;42964;42.910;23.792;2022-09-09T19:41:59;14.45;;;10.35;;
57085;SDS011;42964;42.910;23.792;2022-09-09T19:46:58;13.60;;;10.93;;
57085;SDS011;42964;42.910;23.792;2022-09-09T19:51:58;16.08;;;10.98;;
57085;SDS011;42964;42.910;23.792;2022-09-09T19:56:57;18.23;;;12.32;;
57085;SDS011;42964;42.910;23.792;2022-09-09T20:01:58;17.75;;;11.90;;
57085;SDS011;42964;42.910;23.792;2022-09-09T20:06:57;21.50;;;11.75;;
57085;SDS011;42964;42.910;23.792;2022-09-09T20:11:56;18.00;;;12.15;;
57085;SDS011;42964;42.910;23.792;2022-09-09T20:16:55;20.13;;;12.35;;
57085;SDS011;42964;42.910;23.792;2022-09-09T20:21:54;16.60;;;12.70;;
57085;SDS011;42964;42.910;23.792;2022-09-09T20:26:53;20.20;;;13.00;;
57085;SDS011;42964;42.910;23.792;2022-09-09T20:31:52;21.52;;;13.25;;
57085;SDS011;42964;42.910;23.792;2022-09-09T20:36:51;20.92;;;14.73;;
57085;SDS011;42964;42.910;23.792;2022-09-09T20:41:51;23.27;;;17.02;;
57085;SDS011;42964;42.910;23.792;2022-09-09T20:46:54;23.33;;;18.02;;
57085;SDS011;42964;42.910;23.792;2022-09-09T20:52:01;23.33;;;18.15;;
57085;SDS011;42964;42.910;23.792;2022-09-09T20:57:01;23.15;;;19.48;;
57085;SDS011;42964;42.910;23.792;2022-09-09T21:02:00;21.98;;;18.23;;
57085;SDS011;42964;42.910;23.792;2022-09-09T21:06:59;21.60;;;17.35;;
57085;SDS011;42964;42.910;23.792;2022-09-09T21:12:01;24.80;;;17.42;;
57085;SDS011;42964;42.910;23.792;2022-09-09T21:17:00;22.90;;;15.10;;
57085;SDS011;42964;42.910;23.792;2022-09-09T21:22:00;20.15;;;14.50;;
57085;SDS011;42964;42.910;23.792;2022-09-09T21:26:59;23.55;;;14.35;;
57085;SDS011;42964;42.910;23.792;2022-09-09T21:31:58;20.77;;;14.10;;
57085;SDS011;42964;42.910;23.792;2022-09-09T21:36:58;17.05;;;13.55;;
57085;SDS011;42964;42.910;23.792;2022-09-09T21:41:57;18.10;;;11.88;;
57085;SDS011;42964;42.910;23.792;2022-09-09T21:46:56;17.77;;;12.40;;
57085;SDS011;42964;42.910;23.792;2022-09-09T21:51:55;19.85;;;13.85;;
57085;SDS011;42964;42.910;23.792;2022-09-09T21:56:56;23.70;;;15.68;;
57085;SDS011;42964;42.910;23.792;2022-09-09T22:01:55;25.10;;;17.85;;
57085;SDS011;42964;42.910;23.792;2022-09-09T22:06:54;20.33;;;17.00;;
57085;SDS011;42964;42.910;23.792;2022-09-09T22:11:53;20.75;;;17.33;;
57085;SDS011;42964;42.910;23.792;2022-09-09T22:16:52;20.67;;;16.88;;
57085;SDS011;42964;42.910;23.792;2022-09-09T22:21:51;23.13;;;16.98;;
57085;SDS011;42964;42.910;23.792;2022-09-09T22:26:50;22.48;;;16.65;;
57085;SDS011;42964;42.910;23.792;2022-09-09T22:31:51;21.40;;;16.58;;
57085;SDS011;42964;42.910;23.792;2022-09-09T22:36:50;23.17;;;16.73;;
57085;SDS011;42964;42.910;23.792;2022-09-09T22:41:49;24.50;;;16.45;;
57085;SDS011;42964;42.910;23.792;2022-09-09T22:46:48;18.65;;;16.55;;
57085;SDS011;42964;42.910;23.792;2022-09-09T22:51:48;22.95;;;16.38;;
57085;SDS011;42964;42.910;23.792;2022-09-09T22:56:50;26.15;;;19.80;;
57085;SDS011;42964;42.910;23.792;2022-09-09T23:01:49;22.50;;;18.55;;
57085;SDS011;42964;42.910;23.792;2022-09-09T23:06:48;21.23;;;18.02;;
57085;SDS011;42964;42.910;23.792;2022-09-09T23:11:47;23.10;;;19.00;;
57085;SDS011;42964;42.910;23.792;2022-09-09T23:16:46;27.30;;;17.90;;
57085;SDS011;42964;42.910;23.792;2022-09-09T23:21:46;22.33;;;17.65;;
57085;SDS011;42964;42.910;23.792;2022-09-09T23:26:45;22.05;;;18.00;;
57085;SDS011;42964;42.910;23.792;2022-09-09T23:31:45;23.88;;;18.58;;
57085;SDS011;42964;42.910;23.792;2022-09-09T23:36:44;20.83;;;17.23;;
57085;SDS011;42964;42.910;23.792;2022-09-09T23:41:43;22.42;;;17.52;;
57085;SDS011;42964;42.910;23.792;2022-09-09T23:46:42;20.25;;;17.27;;
57085;SDS011;42964;42.910;23.792;2022-09-09T23:51:41;29.70;;;24.23;;
57085;SDS011;42964;42.910;23.792;2022-09-09T23:56:40;73.93;;;59.63;;
